Time;durP1;ratioP1;P1;durP2;ratioP2;P2;SDS_P1;SDS_P2;PMS_P1;PMS_P2;Temp;Humidity;BMP_temperature;BMP_pressure;BME280_temperature;BME280_humidity;BME280_pressure;Samples;Min_cycle;Max_cycle;Signal;HPM_P1;HPM_P2
2022/04/29 00:00:42;;;;;;;24.88;12.23;;;8.50;99.90;;;;;;5092858;28;20041;-70
2022/04/29 00:03:09;;;;;;;22.50;11.50;;;8.50;99.90;;;;;;5091208;28;20128;-70
2022/04/29 00:05:35;;;;;;;18.05;11.60;;;8.50;99.90;;;;;;5092798;28;20023;-70
2022/04/29 00:08:03;;;;;;;19.55;11.10;;;8.40;99.90;;;;;;5091789;28;20485;-70
2022/04/29 00:10:29;;;;;;;19.23;11.18;;;8.40;99.90;;;;;;5093058;28;20367;-70
2022/04/29 00:12:55;;;;;;;26.30;11.85;;;8.40;99.90;;;;;;5096482;28;20023;-70
2022/04/29 00:15:20;;;;;;;23.55;11.45;;;8.50;99.90;;;;;;5096470;28;20020;-70
2022/04/29 00:17:47;;;;;;;18.08;11.10;;;8.60;99.90;;;;;;5096300;28;20070;-70
2022/04/29 00:20:14;;;;;;;19.92;10.55;;;8.60;99.90;;;;;;5095153;28;20470;-70
2022/04/29 00:22:40;;;;;;;20.38;10.65;;;8.60;99.90;;;;;;5096488;28;20024;-70
2022/04/29 00:25:07;;;;;;;25.70;11.48;;;8.60;99.90;;;;;;5095992;28;20031;-71
2022/04/29 00:27:34;;;;;;;18.83;11.60;;;8.50;99.90;;;;;;5096143;28;20103;-70
2022/04/29 00:29:59;;;;;;;20.50;11.35;;;8.50;99.90;;;;;;5096029;28;20028;-71
2022/04/29 00:32:25;;;;;;;23.20;11.18;;;8.40;99.90;;;;;;5096042;28;20070;-70
2022/04/29 00:34:50;;;;;;;20.45;11.60;;;8.50;99.90;;;;;;5094826;28;20028;-71
2022/04/29 00:37:17;;;;;;;21.60;11.15;;;8.40;99.90;;;;;;5095908;28;20024;-70
2022/04/29 00:39:43;;;;;;;21.02;11.73;;;8.40;99.90;;;;;;5094692;28;20498;-71
2022/04/29 00:42:14;;;;;;;19.77;11.40;;;8.30;99.90;;;;;;5095829;28;20095;-70
2022/04/29 00:44:41;;;;;;;24.83;11.85;;;8.20;99.90;;;;;;5095650;28;20020;-70
2022/04/29 00:47:09;;;;;;;23.38;11.75;;;8.20;99.90;;;;;;5094427;28;20118;-70
2022/04/29 00:49:35;;;;;;;23.70;12.27;;;8.20;99.90;;;;;;5095688;28;20020;-70
2022/04/29 00:52:00;;;;;;;24.15;11.63;;;8.20;99.90;;;;;;5095672;28;20025;-70
2022/04/29 00:54:31;;;;;;;21.48;11.85;;;8.10;99.90;;;;;;5095643;28;20059;-70
2022/04/29 00:56:59;;;;;;;22.52;11.43;;;8.10;99.90;;;;;;5094414;28;20058;-70
2022/04/29 00:59:32;;;;;;;25.33;10.95;;;8.00;99.90;;;;;;5095556;28;20470;-70
2022/04/29 01:01:59;;;;;;;24.33;11.48;;;8.00;99.90;;;;;;5095685;28;20034;-70
2022/04/29 01:04:31;;;;;;;19.83;11.68;;;8.00;99.90;;;;;;5095177;28;20051;-70
2022/04/29 01:06:56;;;;;;;21.70;11.50;;;7.90;99.90;;;;;;5095614;28;20032;-70
2022/04/29 01:09:22;;;;;;;23.80;11.80;;;7.90;99.90;;;;;;5094144;28;20070;-70
2022/04/29 01:11:48;;;;;;;24.95;11.50;;;7.80;99.90;;;;;;5095238;28;20024;-70
2022/04/29 01:14:14;;;;;;;26.52;11.15;;;7.80;99.90;;;;;;5095173;28;20111;-70
2022/04/29 01:16:41;;;;;;;18.90;11.18;;;7.80;99.90;;;;;;5095135;28;20494;-70
2022/04/29 01:19:07;;;;;;;21.02;10.45;;;7.70;99.90;;;;;;5095154;28;20024;-70
2022/04/29 01:21:32;;;;;;;26.17;10.68;;;7.70;99.90;;;;;;5095053;28;20539;-70
2022/04/29 01:23:58;;;;;;;23.50;11.00;;;7.70;99.90;;;;;;5094896;28;20031;-71
2022/04/29 01:26:23;;;;;;;22.20;10.27;;;7.60;99.90;;;;;;5095001;28;20069;-70
2022/04/29 01:28:51;;;;;;;21.55;11.10;;;7.60;99.90;;;;;;5095006;28;20498;-70
2022/04/29 01:31:21;;;;;;;23.30;10.57;;;7.60;99.90;;;;;;5076885;28;20101;-70
2022/04/29 01:33:49;;;;;;;19.25;10.48;;;7.50;99.90;;;;;;5094821;28;20474;-70
2022/04/29 01:36:14;;;;;;;25.13;11.38;;;7.50;99.90;;;;;;5094785;28;20437;-70
2022/04/29 01:38:40;;;;;;;21.98;10.23;;;7.40;99.90;;;;;;5094757;28;20020;-70
2022/04/29 01:41:06;;;;;;;24.23;10.75;;;7.40;99.90;;;;;;5094717;28;20114;-70
2022/04/29 01:43:33;;;;;;;21.95;10.65;;;7.40;99.90;;;;;;5094614;28;20070;-70
2022/04/29 01:45:59;;;;;;;26.13;11.23;;;7.30;99.90;;;;;;5093496;28;20448;-70
2022/04/29 01:48:25;;;;;;;23.60;10.65;;;7.30;99.90;;;;;;5094824;28;20023;-70
2022/04/29 01:50:51;;;;;;;31.80;12.20;;;7.20;99.90;;;;;;5094491;28;20082;-70
2022/04/29 01:53:16;;;;;;;24.90;10.80;;;7.20;99.90;;;;;;5094394;28;20035;-70
2022/04/29 01:55:42;;;;;;;23.48;11.65;;;7.20;99.90;;;;;;5094679;28;20024;-70
2022/04/29 01:58:08;;;;;;;28.30;12.30;;;7.20;99.90;;;;;;5094635;28;20099;-70
2022/04/29 02:00:33;;;;;;;26.17;12.02;;;7.10;99.90;;;;;;5094315;28;20025;-70
2022/04/29 02:02:59;;;;;;;26.35;11.90;;;7.10;99.90;;;;;;5093874;28;20100;-70
2022/04/29 02:05:25;;;;;;;25.00;11.40;;;7.10;99.90;;;;;;5094257;28;20024;-70
2022/04/29 02:07:50;;;;;;;32.03;12.35;;;7.00;99.90;;;;;;5094276;28;20016;-70
2022/04/29 02:10:16;;;;;;;30.08;11.95;;;7.00;99.90;;;;;;5092872;28;20028;-70
2022/04/29 02:12:42;;;;;;;27.48;11.35;;;6.90;99.90;;;;;;5094054;28;20483;-70
2022/04/29 02:15:08;;;;;;;30.48;11.65;;;7.00;99.90;;;;;;5094037;28;20417;-70
2022/04/29 02:17:33;;;;;;;39.08;13.10;;;6.90;99.90;;;;;;5092815;28;20028;-70
2022/04/29 02:19:59;;;;;;;32.35;12.00;;;6.90;99.90;;;;;;5093941;28;20085;-70
2022/04/29 02:22:25;;;;;;;24.00;11.50;;;6.90;99.90;;;;;;5093968;28;20024;-70
2022/04/29 02:24:50;;;;;;;34.15;12.35;;;6.80;99.90;;;;;;5093985;28;20097;-70
2022/04/29 02:27:16;;;;;;;28.60;12.68;;;6.80;99.90;;;;;;5093777;28;20025;-70
2022/04/29 02:29:41;;;;;;;31.65;12.05;;;6.80;99.90;;;;;;5058995;28;20516;-70
2022/04/29 02:32:07;;;;;;;27.35;11.85;;;6.80;99.90;;;;;;5093731;28;20089;-70
2022/04/29 02:34:36;;;;;;;28.17;11.68;;;6.80;99.90;;;;;;5093274;28;20031;-70
2022/04/29 02:37:02;;;;;;;27.17;12.45;;;6.70;99.90;;;;;;5092517;28;20394;-69
2022/04/29 02:39:28;;;;;;;26.17;11.55;;;6.70;99.90;;;;;;5093688;28;20028;-69
2022/04/29 02:41:54;;;;;;;30.67;12.07;;;6.70;99.90;;;;;;5093696;28;20039;-69
2022/04/29 02:44:20;;;;;;;29.33;13.13;;;6.70;99.90;;;;;;5093481;28;20024;-70
2022/04/29 02:47:17;;;;;;;29.60;12.02;;;6.60;99.90;;;;;;5093528;28;20024;-70
2022/04/29 02:49:31;;;;;;;29.45;13.13;;;6.60;99.90;;;;;;5093318;28;20047;-69
2022/04/29 02:51:57;;;;;;;30.98;12.23;;;6.60;99.90;;;;;;5093498;28;20024;-70
2022/04/29 02:54:23;;;;;;;28.02;12.50;;;6.60;99.90;;;;;;5093692;28;20024;-70
2022/04/29 02:56:52;;;;;;;29.48;13.15;;;6.60;99.90;;;;;;5093353;28;20039;-70
2022/04/29 02:59:18;;;;;;;33.20;13.32;;;6.50;99.90;;;;;;5093381;28;20528;-70
2022/04/29 03:01:44;;;;;;;27.05;12.70;;;6.50;99.90;;;;;;5093364;28;20031;-70
2022/04/29 03:04:10;;;;;;;30.25;12.75;;;6.40;99.90;;;;;;5091938;28;20048;-70
2022/04/29 03:06:36;;;;;;;32.35;13.40;;;6.40;99.90;;;;;;5093353;28;20047;-70
2022/04/29 03:09:01;;;;;;;29.90;13.52;;;6.40;99.90;;;;;;5093183;28;20020;-70
2022/04/29 03:11:27;;;;;;;32.85;13.60;;;6.30;99.90;;;;;;5093174;28;20031;-69
2022/04/29 03:13:52;;;;;;;30.85;13.80;;;6.30;99.90;;;;;;5093301;28;20028;-70
2022/04/29 03:16:18;;;;;;;31.52;13.68;;;6.30;99.90;;;;;;5093148;28;20020;-70
2022/04/29 03:18:44;;;;;;;27.65;13.65;;;6.30;99.90;;;;;;5091994;28;20032;-70
2022/04/29 03:21:11;;;;;;;35.17;12.90;;;6.30;99.90;;;;;;5091968;28;20024;-70
2022/04/29 03:23:37;;;;;;;31.42;14.43;;;6.20;99.90;;;;;;5091890;28;20020;-70
2022/04/29 03:26:04;;;;;;;34.30;13.90;;;6.20;99.90;;;;;;5093151;28;20031;-70
2022/04/29 03:28:30;;;;;;;31.90;13.55;;;6.20;99.90;;;;;;5093124;28;20387;-70
2022/04/29 03:30:56;;;;;;;38.58;14.30;;;6.10;99.90;;;;;;5093223;28;20024;-70
2022/04/29 03:33:22;;;;;;;36.90;14.95;;;6.10;99.90;;;;;;5091987;28;20032;-70
2022/04/29 03:35:50;;;;;;;39.35;14.55;;;6.10;99.90;;;;;;5093276;28;20034;-70
2022/04/29 03:38:16;;;;;;;31.55;14.30;;;6.10;99.90;;;;;;5093024;28;20020;-70
2022/04/29 03:40:42;;;;;;;36.60;15.18;;;6.00;99.90;;;;;;5093014;28;20028;-70
2022/04/29 03:43:08;;;;;;;36.75;15.13;;;6.00;99.90;;;;;;5092890;28;20035;-70
2022/04/29 03:45:33;;;;;;;34.60;14.50;;;6.00;99.90;;;;;;5093194;28;20028;-70
2022/04/29 03:47:59;;;;;;;40.42;16.33;;;6.10;99.90;;;;;;5096891;28;20109;-69
2022/04/29 03:50:27;;;;;;;33.38;15.30;;;6.10;99.90;;;;;;5096877;28;20081;-70
2022/04/29 03:52:55;;;;;;;37.72;14.70;;;6.10;99.90;;;;;;5097195;28;20103;-70
2022/04/29 03:55:23;;;;;;;37.85;14.88;;;6.10;99.90;;;;;;5097028;28;20393;-70
2022/04/29 03:57:50;;;;;;;39.38;16.08;;;6.10;99.90;;;;;;5096688;28;20016;-70
2022/04/29 04:00:16;;;;;;;36.50;16.17;;;6.10;99.90;;;;;;5096676;28;20024;-70
2022/04/29 04:02:42;;;;;;;39.03;15.88;;;6.10;99.90;;;;;;5096613;28;20367;-70
2022/04/29 04:05:09;;;;;;;40.80;17.13;;;6.10;99.90;;;;;;5095128;28;20059;-70
2022/04/29 04:07:35;;;;;;;40.67;15.90;;;6.00;99.90;;;;;;5096586;28;20027;-70
2022/04/29 04:10:01;;;;;;;37.70;16.52;;;6.00;99.90;;;;;;5095299;28;20493;-70
2022/04/29 04:12:37;;;;;;;45.45;16.67;;;6.00;99.90;;;;;;5095095;28;20032;-70
2022/04/29 04:15:03;;;;;;;37.40;15.30;;;6.00;99.90;;;;;;5096623;28;20028;-70
2022/04/29 04:17:29;;;;;;;43.65;18.05;;;6.00;99.90;;;;;;5096326;28;20093;-70
2022/04/29 04:19:54;;;;;;;43.63;17.02;;;6.10;99.90;;;;;;5096390;28;20024;-70
2022/04/29 04:22:19;;;;;;;45.28;16.98;;;6.10;99.90;;;;;;5096164;28;20394;-70
2022/04/29 04:24:45;;;;;;;39.45;16.90;;;6.00;99.90;;;;;;5096070;28;20111;-69
2022/04/29 04:27:10;;;;;;;39.42;16.75;;;6.10;99.90;;;;;;5096119;28;20470;-70
2022/04/29 04:29:36;;;;;;;43.80;16.30;;;6.10;99.90;;;;;;5096308;28;20073;-70
2022/04/29 04:32:01;;;;;;;38.35;15.90;;;6.10;99.90;;;;;;5096065;28;20024;-70
2022/04/29 04:34:58;;;;;;;36.45;15.25;;;6.10;99.90;;;;;;5095968;28;20028;-70
2022/04/29 04:37:13;;;;;;;31.17;14.80;;;6.10;99.90;;;;;;5095817;28;20024;-70
2022/04/29 04:39:39;;;;;;;40.28;16.35;;;6.10;99.90;;;;;;5095863;28;20421;-70
2022/04/29 04:42:05;;;;;;;42.17;15.32;;;6.20;99.90;;;;;;5094639;28;20078;-70
2022/04/29 04:44:31;;;;;;;36.03;15.43;;;6.20;99.90;;;;;;5095926;28;20055;-69
2022/04/29 04:46:57;;;;;;;33.28;15.60;;;6.20;99.90;;;;;;5095713;28;20028;-70
2022/04/29 04:49:22;;;;;;;34.53;16.63;;;6.20;99.90;;;;;;5094571;28;20024;-70
2022/04/29 04:51:48;;;;;;;38.42;15.45;;;6.20;99.90;;;;;;5095608;28;20049;-70
2022/04/29 04:54:13;;;;;;;38.13;15.88;;;6.20;99.90;;;;;;5095609;28;20398;-70
2022/04/29 04:56:39;;;;;;;38.65;16.15;;;6.30;99.90;;;;;;5095140;28;20095;-70
2022/04/29 04:59:04;;;;;;;41.13;14.63;;;6.30;99.90;;;;;;5095481;28;20035;-70
2022/04/29 05:01:30;;;;;;;32.38;16.00;;;6.40;99.90;;;;;;5095488;28;20070;-70
2022/04/29 05:03:55;;;;;;;35.38;16.55;;;6.50;99.90;;;;;;5095233;28;20054;-70
2022/04/29 05:06:21;;;;;;;34.38;15.45;;;6.50;99.90;;;;;;5095315;28;20028;-70
2022/04/29 05:08:46;;;;;;;38.70;16.73;;;6.60;99.90;;;;;;5095244;28;20035;-70
2022/04/29 05:11:12;;;;;;;35.53;16.20;;;6.80;99.90;;;;;;5094154;28;20020;-70
2022/04/29 05:13:37;;;;;;;32.05;15.68;;;6.90;99.90;;;;;;5095446;28;20027;-70
2022/04/29 05:16:03;;;;;;;39.33;15.40;;;7.10;99.90;;;;;;5095422;28;20060;-70
2022/04/29 05:18:29;;;;;;;31.45;14.52;;;7.30;99.90;;;;;;5095029;28;20051;-70
2022/04/29 05:20:54;;;;;;;35.70;15.35;;;7.40;99.90;;;;;;5095228;28;20024;-70
2022/04/29 05:23:19;;;;;;;34.58;14.98;;;7.60;99.90;;;;;;5094881;28;20115;-70
2022/04/29 05:25:46;;;;;;;30.02;14.13;;;7.60;99.90;;;;;;5095010;28;20020;-70
2022/04/29 05:28:12;;;;;;;30.08;14.85;;;7.70;99.90;;;;;;5095019;28;20574;-70
2022/04/29 05:30:38;;;;;;;30.63;14.95;;;7.90;99.90;;;;;;5094897;28;20020;-70
2022/04/29 05:33:03;;;;;;;31.08;14.48;;;7.80;99.90;;;;;;5094873;28;20031;-70
2022/04/29 05:35:29;;;;;;;34.33;14.80;;;7.90;99.90;;;;;;5093597;28;20020;-71
2022/04/29 05:37:55;;;;;;;28.83;14.45;;;8.00;99.90;;;;;;5094842;28;20024;-70
2022/04/29 05:43:07;;;;;;;25.90;13.40;;;8.50;99.90;;;;;;5094471;28;20035;-71
2022/04/29 05:45:33;;;;;;;26.63;13.82;;;9.00;99.90;;;;;;5094915;28;20032;-70
2022/04/29 05:47:58;;;;;;;34.53;14.85;;;9.00;99.90;;;;;;5094661;28;20027;-70
2022/04/29 05:50:24;;;;;;;28.90;14.57;;;8.60;99.90;;;;;;5094589;28;20107;-71
2022/04/29 05:52:49;;;;;;;34.47;14.23;;;8.30;99.90;;;;;;5092974;28;20027;-70
2022/04/29 05:55:15;;;;;;;35.30;15.60;;;7.90;99.90;;;;;;5094356;28;20024;-70
2022/04/29 05:57:41;;;;;;;29.85;14.82;;;7.90;99.90;;;;;;5094497;28;20027;-70
2022/04/29 06:00:07;;;;;;;29.20;14.85;;;8.10;99.90;;;;;;5094187;28;20131;-71
2022/04/29 06:02:33;;;;;;;32.28;13.77;;;8.20;99.90;;;;;;5094072;28;20575;-71
2022/04/29 06:05:01;;;;;;;32.10;15.35;;;8.40;99.90;;;;;;5094037;28;20032;-70
2022/04/29 06:07:27;;;;;;;27.77;14.00;;;8.30;99.90;;;;;;5094113;28;20020;-71
2022/04/29 06:09:52;;;;;;;35.45;16.20;;;8.40;99.90;;;;;;5092345;28;20020;-71
2022/04/29 06:12:18;;;;;;;31.65;15.95;;;8.50;99.90;;;;;;5093950;28;20024;-70
2022/04/29 06:14:45;;;;;;;31.08;15.07;;;8.80;99.90;;;;;;5093977;28;20028;-71
2022/04/29 06:17:12;;;;;;;24.25;13.73;;;8.90;99.90;;;;;;5093986;28;20020;-71
2022/04/29 06:19:37;;;;;;;27.77;14.70;;;9.20;99.90;;;;;;5093995;28;20429;-71
2022/04/29 06:22:04;;;;;;;31.33;13.82;;;9.60;99.90;;;;;;5094025;28;20127;-71
2022/04/29 06:24:30;;;;;;;26.85;13.77;;;9.70;99.90;;;;;;5093688;28;20028;-71
2022/04/29 06:26:56;;;;;;;27.48;14.18;;;10.30;99.90;;;;;;5094127;28;20436;-71
2022/04/29 06:29:21;;;;;;;24.48;13.95;;;10.50;99.90;;;;;;5092481;28;20024;-71
2022/04/29 06:31:47;;;;;;;23.75;13.55;;;11.40;99.90;;;;;;5093726;28;20020;-71
2022/04/29 06:34:12;;;;;;;24.05;12.23;;;12.20;99.90;;;;;;5058956;28;20024;-71
2022/04/29 06:36:38;;;;;;;25.95;12.88;;;12.40;99.90;;;;;;5093640;28;20027;-72
2022/04/29 06:39:04;;;;;;;25.95;12.93;;;12.50;99.90;;;;;;5092392;28;20028;-72
2022/04/29 06:41:30;;;;;;;21.70;12.65;;;12.70;99.90;;;;;;5093307;28;20039;-72
2022/04/29 06:43:55;;;;;;;22.67;12.38;;;12.80;99.90;;;;;;5092415;28;20063;-72
2022/04/29 06:46:24;;;;;;;24.08;12.82;;;12.50;99.90;;;;;;5092675;28;20039;-72
2022/04/29 06:48:50;;;;;;;22.38;12.73;;;12.10;99.90;;;;;;5090464;28;20024;-72
2022/04/29 06:51:16;;;;;;;22.02;12.20;;;12.80;99.90;;;;;;5092352;28;20484;-72
2022/04/29 06:53:41;;;;;;;23.27;12.40;;;12.70;99.90;;;;;;5091860;28;20115;-72
2022/04/29 06:56:07;;;;;;;23.63;12.60;;;12.70;99.90;;;;;;5092607;28;20034;-72
2022/04/29 06:58:32;;;;;;;21.65;12.32;;;13.20;99.90;;;;;;5092886;28;20393;-72
2022/04/29 07:00:58;;;;;;;24.20;11.55;;;14.20;99.90;;;;;;5091295;28;20020;-72
2022/04/29 07:03:23;;;;;;;23.13;11.85;;;14.80;99.90;;;;;;5087810;28;20052;-72
2022/04/29 07:05:52;;;;;;;22.17;12.60;;;14.90;99.90;;;;;;5090995;28;20020;-71
2022/04/29 07:08:20;;;;;;;20.95;11.23;;;14.90;99.90;;;;;;5085502;28;20024;-72
2022/04/29 07:10:46;;;;;;;19.58;11.48;;;15.30;99.90;;;;;;5076281;28;20075;-72
2022/04/29 07:13:12;;;;;;;18.02;11.35;;;15.00;99.90;;;;;;5088878;28;20064;-73
2022/04/29 07:15:43;;;;;;;22.80;11.65;;;15.10;99.90;;;;;;5085007;28;20025;-72
2022/04/29 07:18:09;;;;;;;17.45;11.55;;;14.80;99.90;;;;;;5072708;28;20025;-72
2022/04/29 07:20:35;;;;;;;24.70;12.45;;;14.70;99.90;;;;;;5073292;28;20493;-72
2022/04/29 07:23:00;;;;;;;20.75;11.85;;;13.80;99.90;;;;;;5076922;28;20025;-72
2022/04/29 07:25:26;;;;;;;21.48;11.95;;;13.40;99.90;;;;;;5092404;28;20032;-72
2022/04/29 07:27:51;;;;;;;21.88;12.07;;;13.80;99.90;;;;;;5097107;28;20024;-72
2022/04/29 07:30:17;;;;;;;21.33;11.80;;;13.90;99.90;;;;;;5095546;28;20381;-72
2022/04/29 07:32:42;;;;;;;23.15;12.15;;;13.80;99.90;;;;;;5097077;28;20099;-72
2022/04/29 07:43:25;;;;;;;23.08;12.27;;;13.10;99.90;;;;;;5095162;28;20098;-72
2022/04/29 07:45:52;;;;;;;21.60;12.27;;;13.30;99.90;;;;;;5081140;28;20041;-72
2022/04/29 07:48:19;;;;;;;18.10;11.95;;;13.10;99.90;;;;;;5076448;28;20507;-72
2022/04/29 07:50:45;;;;;;;23.42;12.38;;;13.10;99.90;;;;;;5086371;28;20016;-72
2022/04/29 07:53:10;;;;;;;24.27;12.10;;;13.30;99.90;;;;;;5096611;28;20497;-72
2022/04/29 07:55:36;;;;;;;21.75;11.50;;;13.30;99.90;;;;;;5083440;28;20021;-71
2022/04/29 07:58:03;;;;;;;21.38;11.68;;;13.50;99.90;;;;;;5083616;28;20024;-71
2022/04/29 08:00:31;;;;;;;19.75;11.27;;;13.50;99.90;;;;;;5096530;28;20107;-71
2022/04/29 08:03:01;;;;;;;26.67;11.60;;;14.60;99.90;;;;;;5093398;28;20052;-72
2022/04/29 08:05:28;;;;;;;19.70;10.98;;;16.00;99.90;;;;;;5096645;28;20575;-73
2022/04/29 08:07:55;;;;;;;22.20;11.07;;;17.60;99.90;;;;;;5085471;28;20075;-72
2022/04/29 08:10:22;;;;;;;18.50;10.25;;;18.40;97.30;;;;;;5095262;28;20059;-72
2022/04/29 08:12:47;;;;;;;17.80;10.55;;;18.40;96.80;;;;;;5085510;28;20115;-72
2022/04/29 08:15:13;;;;;;;17.10;9.73;;;18.90;94.00;;;;;;5075763;28;20052;-72
2022/04/29 08:17:39;;;;;;;17.10;10.68;;;18.90;92.10;;;;;;5091187;28;20115;-73
2022/04/29 08:20:06;;;;;;;17.42;10.25;;;18.70;91.70;;;;;;5075946;28;20566;-72
2022/04/29 08:22:32;;;;;;;18.30;10.18;;;19.10;92.70;;;;;;5078393;28;20052;-73
2022/04/29 08:24:57;;;;;;;17.20;8.55;;;19.40;91.50;;;;;;5094850;28;20063;-73
2022/04/29 08:27:23;;;;;;;16.58;9.45;;;20.00;97.00;;;;;;5079655;28;20025;-72
2022/04/29 08:29:48;;;;;;;18.88;10.13;;;20.60;96.30;;;;;;5075454;28;20028;-73
2022/04/29 08:32:14;;;;;;;16.30;9.57;;;20.50;84.50;;;;;;5090164;28;20020;-73
2022/04/29 08:34:39;;;;;;;17.05;10.50;;;21.10;79.00;;;;;;5069378;28;20024;-73
2022/04/29 08:37:05;;;;;;;18.73;9.55;;;20.60;79.00;;;;;;5095632;28;20031;-72
2022/04/29 08:39:30;;;;;;;16.55;9.57;;;21.40;78.10;;;;;;5086437;28;20035;-72
2022/04/29 08:42:01;;;;;;;15.27;9.73;;;22.10;75.60;;;;;;5075443;28;20029;-73
2022/04/29 08:44:30;;;;;;;15.98;9.10;;;21.40;77.10;;;;;;5083888;28;20032;-73
2022/04/29 08:46:57;;;;;;;19.48;9.30;;;20.10;78.10;;;;;;5090047;28;20020;-72
2022/04/29 08:49:24;;;;;;;20.77;8.68;;;19.70;80.50;;;;;;5090790;28;20118;-72
2022/04/29 08:51:50;;;;;;;16.38;8.48;;;19.20;81.30;;;;;;5090371;28;20020;-72
2022/04/29 08:58:36;;;;;;;18.73;8.63;;;20.90;81.20;;;;;;5088203;28;20032;-71
2022/04/29 08:59:57;;;;;;;14.52;9.77;;;21.50;78.40;;;;;;5090736;28;20509;-73
2022/04/29 09:02:23;;;;;;;17.33;8.70;;;21.00;74.50;;;;;;5089521;28;20078;-73
2022/04/29 09:04:49;;;;;;;16.60;8.52;;;20.90;76.30;;;;;;5079635;28;20283;-73
2022/04/29 09:07:15;;;;;;;17.88;9.95;;;20.90;74.70;;;;;;5073847;28;20091;-72
2022/04/29 09:09:41;;;;;;;16.02;9.48;;;20.00;75.10;;;;;;5086804;28;20414;-72
2022/04/29 09:12:16;;;;;;;18.77;10.05;;;19.80;78.70;;;;;;5093922;28;20031;-73
2022/04/29 09:14:41;;;;;;;16.83;10.35;;;19.40;80.50;;;;;;5092439;28;20024;-72
2022/04/29 09:17:26;;;;;;;16.48;11.05;;;18.50;83.10;;;;;;5093690;28;20050;-72
2022/04/29 09:19:51;;;;;;;17.50;11.27;;;18.00;87.00;;;;;;5090755;28;20032;-72
2022/04/29 09:22:17;;;;;;;17.65;11.18;;;17.40;91.90;;;;;;5093064;28;20042;-72
2022/04/29 09:24:57;;;;;;;20.65;10.30;;;17.40;92.20;;;;;;5084965;28;20035;-72
2022/04/29 09:27:23;;;;;;;17.60;10.50;;;16.90;93.70;;;;;;5093127;28;20016;-71
2022/04/29 09:29:48;;;;;;;18.58;10.55;;;16.90;97.00;;;;;;5068537;28;20166;-72
2022/04/29 09:32:14;;;;;;;21.50;11.15;;;17.00;95.90;;;;;;5078559;28;20545;-72
2022/04/29 09:34:50;;;;;;;19.40;9.70;;;16.30;96.30;;;;;;5087209;28;20028;-71
2022/04/29 09:37:18;;;;;;;18.40;10.18;;;16.00;99.50;;;;;;5076169;28;20025;-69
2022/04/29 09:39:55;;;;;;;22.80;11.20;;;15.90;99.90;;;;;;5085909;28;20029;-71
2022/04/29 09:42:21;;;;;;;22.58;11.63;;;16.10;99.90;;;;;;5091897;28;20032;-71
2022/04/29 09:44:47;;;;;;;23.10;11.43;;;16.10;99.90;;;;;;5093388;28;20036;-71
2022/04/29 09:47:16;;;;;;;23.77;10.73;;;15.90;99.90;;;;;;5091369;28;20024;-71
2022/04/29 09:49:54;;;;;;;20.20;10.95;;;15.70;99.90;;;;;;5093316;28;20023;-71
2022/04/29 09:52:20;;;;;;;22.27;11.90;;;15.60;99.90;;;;;;5093037;28;20026;-71
2022/04/29 09:54:46;;;;;;;18.55;9.95;;;15.50;99.90;;;;;;5094361;28;20543;-71
2022/04/29 09:57:15;;;;;;;21.30;11.00;;;15.10;99.90;;;;;;5089158;28;20028;-71
2022/04/29 10:02:21;;;;;;;22.13;11.02;;;15.00;99.90;;;;;;5107603;27;20450;-71
2022/04/29 10:04:49;;;;;;;22.60;11.18;;;15.00;99.90;;;;;;5097648;28;20364;-71
2022/04/29 10:07:16;;;;;;;17.65;11.13;;;15.10;99.90;;;;;;5090374;28;20035;-71
2022/04/29 10:09:46;;;;;;;24.17;12.07;;;14.90;99.90;;;;;;5090396;28;20030;-71
2022/04/29 10:12:14;;;;;;;20.05;10.57;;;14.70;99.90;;;;;;5102893;28;20028;-70
2022/04/29 10:14:40;;;;;;;19.02;10.10;;;14.60;99.90;;;;;;5107177;28;20493;-69
2022/04/29 10:22:50;;;;;;;14.30;9.77;;;14.90;99.90;;;;;;5084050;28;20021;-70
2022/04/29 10:25:18;;;;;;;16.90;9.70;;;15.00;99.90;;;;;;5085535;28;20056;-70
2022/04/29 10:27:45;;;;;;;19.90;10.50;;;15.40;99.90;;;;;;5084639;28;20024;-71
2022/04/29 10:30:11;;;;;;;18.67;10.23;;;15.60;99.90;;;;;;5089889;28;20127;-69
2022/04/29 10:33:01;;;;;;;26.70;9.73;;;15.70;99.90;;;;;;5090232;28;20024;-71
2022/04/29 10:35:46;;;;;;;21.20;9.98;;;15.90;99.90;;;;;;5089584;28;20020;-71
2022/04/29 10:38:13;;;;;;;16.27;9.43;;;16.40;99.90;;;;;;5090010;28;20028;-71
2022/04/29 10:40:39;;;;;;;18.02;10.10;;;16.50;99.90;;;;;;5090749;28;20395;-71
2022/04/29 10:43:09;;;;;;;15.40;9.88;;;15.80;99.90;;;;;;5089885;28;20033;-71
2022/04/29 10:45:35;;;;;;;19.30;9.65;;;15.90;99.90;;;;;;5089612;28;20020;-71
2022/04/29 10:48:29;;;;;;;20.65;10.77;;;15.70;99.90;;;;;;5089781;28;20390;-70
2022/04/29 10:50:54;;;;;;;;;;;15.40;99.90;;;;;;5089830;28;20465;-71
2022/04/29 10:53:22;;;;;;;16.25;9.80;;;15.10;99.90;;;;;;5089282;28;20007;-70
2022/04/29 10:55:48;;;;;;;16.42;10.00;;;15.30;99.90;;;;;;5089699;28;20458;-71
2022/04/29 10:58:22;;;;;;;16.70;10.02;;;15.30;99.90;;;;;;5089638;28;20063;-71
2022/04/29 11:01:16;;;;;;;17.35;10.15;;;15.10;99.90;;;;;;5067858;28;20049;-71
2022/04/29 11:03:44;;;;;;;19.30;10.43;;;15.20;99.90;;;;;;5072239;28;20061;-71
2022/04/29 11:06:12;;;;;;;18.83;10.93;;;15.20;99.90;;;;;;5073101;28;20041;-71
2022/04/29 11:08:39;;;;;;;17.10;10.70;;;15.10;99.90;;;;;;5070646;28;20474;-71
2022/04/29 11:11:05;;;;;;;17.75;10.40;;;14.90;99.90;;;;;;5089351;28;20027;-72
2022/04/29 11:13:34;;;;;;;24.67;12.48;;;15.10;99.90;;;;;;5075145;28;20107;-69
2022/04/29 11:16:16;;;;;;;25.20;11.93;;;15.00;99.90;;;;;;5076938;28;20108;-71
2022/04/29 11:18:44;;;;;;;20.63;11.57;;;14.60;99.90;;;;;;5058313;28;20020;-72
2022/04/29 11:26:46;;;;;;;24.65;11.63;;;15.20;99.90;;;;;;5067479;28;20471;-71
2022/04/29 11:29:12;;;;;;;21.92;10.80;;;15.40;99.90;;;;;;5075468;28;20024;-71
2022/04/29 11:31:38;;;;;;;21.83;11.35;;;15.70;99.90;;;;;;5075348;28;20021;-71
2022/04/29 11:34:07;;;;;;;18.40;10.82;;;15.60;99.90;;;;;;5066932;28;20021;-70
2022/04/29 11:36:33;;;;;;;22.77;12.07;;;15.10;99.90;;;;;;5060878;28;20155;-70
2022/04/29 11:38:59;;;;;;;20.00;11.32;;;15.00;99.90;;;;;;5055674;28;20112;-70
2022/04/29 11:41:27;;;;;;;19.98;11.07;;;14.90;99.90;;;;;;5078417;28;20129;-71
2022/04/29 11:43:53;;;;;;;19.15;12.38;;;15.00;99.90;;;;;;5075192;28;20024;-71
2022/04/29 11:46:20;;;;;;;20.60;11.63;;;14.90;99.90;;;;;;5075147;28;20021;-71
2022/04/29 11:48:51;;;;;;;19.90;12.65;;;15.00;99.90;;;;;;5075233;28;20475;-71
2022/04/29 11:51:17;;;;;;;21.13;11.73;;;15.30;99.90;;;;;;5075246;28;20027;-72
2022/04/29 11:56:37;;;;;;;20.92;10.32;;;15.70;99.90;;;;;;5109920;27;20663;-71
2022/04/29 11:59:04;;;;;;;26.48;11.60;;;15.60;99.90;;;;;;5111239;28;20036;-70
2022/04/29 12:01:30;;;;;;;21.17;11.07;;;15.90;99.90;;;;;;5100210;28;20028;-71
2022/04/29 12:03:56;;;;;;;19.13;11.00;;;16.20;99.90;;;;;;5090362;28;20453;-72
2022/04/29 12:06:22;;;;;;;20.10;10.90;;;15.70;99.90;;;;;;5090462;28;20086;-71
2022/04/29 12:08:48;;;;;;;18.70;10.93;;;15.20;99.90;;;;;;5102966;28;20474;-71
2022/04/29 12:11:23;;;;;;;23.77;11.40;;;15.40;99.90;;;;;;5109756;28;20020;-70
2022/04/29 12:13:49;;;;;;;24.13;11.68;;;15.20;99.90;;;;;;5108982;28;20470;-72
2022/04/29 12:16:15;;;;;;;18.30;10.50;;;15.70;99.90;;;;;;5110674;28;20116;-71
2022/04/29 12:18:44;;;;;;;23.63;11.48;;;15.60;99.90;;;;;;5094628;28;20107;-71
2022/04/29 12:21:10;;;;;;;19.23;11.05;;;15.80;99.90;;;;;;5090415;28;20085;-71
2022/04/29 12:23:36;;;;;;;22.88;11.63;;;15.80;99.90;;;;;;5089342;28;20024;-71
2022/04/29 12:26:03;;;;;;;18.38;10.65;;;16.00;99.90;;;;;;5090061;28;20036;-71
2022/04/29 12:28:30;;;;;;;24.23;11.30;;;15.80;99.90;;;;;;5090110;28;20508;-71
2022/04/29 12:36:58;;;;;;;19.52;10.95;;;16.60;99.90;;;;;;5110052;27;20359;-70
2022/04/29 12:39:26;;;;;;;19.52;10.23;;;16.50;99.90;;;;;;5101775;28;20020;-71
2022/04/29 12:42:01;;;;;;;18.35;10.75;;;16.50;99.90;;;;;;5091465;28;20024;-69
2022/04/29 12:47:21;;;;;;;22.38;10.88;;;16.30;99.90;;;;;;5093112;28;20393;-71
2022/04/29 12:49:46;;;;;;;20.90;11.48;;;16.00;99.90;;;;;;5092226;28;20032;-71
2022/04/29 12:52:12;;;;;;;21.20;11.50;;;15.40;99.90;;;;;;5093557;28;20024;-71
2022/04/29 12:54:37;;;;;;;22.55;11.98;;;15.20;99.90;;;;;;5110758;28;20427;-71
2022/04/29 12:57:05;;;;;;;18.88;11.50;;;15.40;99.90;;;;;;5107915;28;20028;-71
2022/04/29 12:59:31;;;;;;;19.13;10.90;;;15.60;99.90;;;;;;5110549;28;20065;-71
2022/04/29 13:02:05;;;;;;;22.15;11.45;;;15.60;99.90;;;;;;5105432;28;20043;-70
2022/04/29 13:04:30;;;;;;;23.67;12.43;;;16.00;99.90;;;;;;5105430;28;20059;-71
2022/04/29 13:06:56;;;;;;;18.92;11.68;;;16.30;99.90;;;;;;5108717;28;20060;-71
2022/04/29 13:09:22;;;;;;;21.10;12.35;;;16.50;99.90;;;;;;5109236;28;20024;-71
2022/04/29 13:11:48;;;;;;;26.45;12.32;;;16.50;99.90;;;;;;5106116;28;20039;-71